This is the latest recevied weather packets stored in our database for station/object VE2JJ-13. If no packets are shown the sender has not sent any weather packets the latest 10 day(s).
| Time | Temp. | Humidity | Pressure | Rain* | Wind** | Luminosity | Snow |
|---|---|---|---|---|---|---|---|
| 1777987019 | 13.33° C | 81% | 994.2 hPa | 0.76 mm | - | - | - |
| 1777986719 | 13.33° C | 81% | 994.2 hPa | 1.02 mm | - | - | - |
| 1777986420 | 13.33° C | 81% | 994.2 hPa | 1.02 mm | - | - | - |
| 1777985488 | 12.78° C | 84% | 994.5 hPa | 1.02 mm | - | - | - |
| 1777984858 | 12.78° C | 82% | 994.7 hPa | 1.02 mm | - | - | - |
| 1777984556 | 13.33° C | 81% | 994.8 hPa | 1.02 mm | - | - | - |
| 1777984227 | 13.33° C | 80% | 994.8 hPa | 0.76 mm | - | - | - |
| 1777983599 | 13.89° C | 75% | 994.7 hPa | 0.25 mm | - | - | - |
| 1777983269 | 15° C | 71% | 994.7 hPa | 0 mm | - | - | - |
| 1777982969 | 15° C | 67% | 994.7 hPa | 0 mm | - | - | - |
| 1777982666 | 15.56° C | 66% | 994.6 hPa | 0 mm | - | - | - |
| 1777982367 | 16.11° C | 64% | 994.5 hPa | 0 mm | - | - | - |
| 1777982040 | 16.67° C | 61% | 994.5 hPa | 0 mm | - | - | - |
| 1777980810 | 16.67° C | 60% | 994.2 hPa | 0 mm | - | - | - |
| 1777979846 | 16.11° C | 61% | 994.1 hPa | 0 mm | - | - | - |
| 1777979516 | 15.56° C | 61% | 994 hPa | 0 mm | - | - | - |
| 1777978886 | 15° C | 62% | 993.9 hPa | 0 mm | - | - | - |
| 1777978256 | 14.44° C | 63% | 993.9 hPa | 0 mm | - | - | - |
| 1777977296 | 14.44° C | 63% | 993.7 hPa | 0 mm | - | - | - |
| 1777976967 | 14.44° C | 63% | 993.7 hPa | 0 mm | - | - | - |
| 1777976670 | 14.44° C | 63% | 993.6 hPa | 0 mm | - | - | - |
| 1777976366 | 14.44° C | 63% | 993.6 hPa | 0 mm | - | - | - |
| 1777976037 | 13.89° C | 63% | 993.8 hPa | 0 mm | - | - | - |
| 1777975736 | 13.89° C | 63% | 993.8 hPa | 0 mm | - | - | - |
| 1777975139 | 13.89° C | 63% | 993.9 hPa | 0 mm | - | - | - |
* Rain latest hour (hover to see other rain measurements)
** Current wind speed in m/s (hover to see current wind gust speed)